createdAt,value
2018-04-11T00:00:11.091Z,30.40
2018-04-11T00:02:39.497Z,23.93
2018-04-11T00:05:07.866Z,27.13
2018-04-11T00:07:36.237Z,25.17
2018-04-11T00:10:04.606Z,28.93
2018-04-11T00:12:33.048Z,24.40
2018-04-11T00:15:01.446Z,23.37
2018-04-11T00:17:29.801Z,23.57
2018-04-11T00:19:58.176Z,23.77
2018-04-11T00:22:26.550Z,25.87
2018-04-11T00:24:54.907Z,24.70
2018-04-11T00:27:23.270Z,30.13
2018-04-11T00:29:51.805Z,24.97
2018-04-11T00:32:20.204Z,30.23
2018-04-11T00:34:48.556Z,21.13
2018-04-11T00:37:16.986Z,24.70
2018-04-11T00:39:45.369Z,25.70
2018-04-11T00:42:13.817Z,29.83
2018-04-11T00:44:42.209Z,30.40
2018-04-11T00:47:10.718Z,22.90
2018-04-11T00:49:39.077Z,24.53
2018-04-11T00:52:07.437Z,22.63
2018-04-11T00:54:35.808Z,31.43
2018-04-11T00:57:04.175Z,22.83
2018-04-11T00:59:32.597Z,26.03
2018-04-11T01:02:00.959Z,26.00
2018-04-11T01:04:29.353Z,31.53
2018-04-11T01:06:57.719Z,34.40
2018-04-11T01:09:26.094Z,30.20
2018-04-11T01:11:54.699Z,31.50
2018-04-11T01:14:23.174Z,30.43
2018-04-11T01:16:51.535Z,29.30
2018-04-11T01:19:19.920Z,30.17
2018-04-11T01:21:48.327Z,29.37
2018-04-11T01:24:16.689Z,32.43
2018-04-11T01:26:45.060Z,33.40
2018-04-11T01:29:13.423Z,33.20
2018-04-11T01:31:41.788Z,32.67
2018-04-11T01:34:10.318Z,33.17
2018-04-11T01:36:38.694Z,36.73
2018-04-11T01:39:07.086Z,35.97
2018-04-11T01:41:35.437Z,39.57
2018-04-11T01:44:03.793Z,36.30
2018-04-11T01:46:32.166Z,41.37
2018-04-11T01:49:00.665Z,36.20
2018-04-11T01:51:29.178Z,39.83
2018-04-11T01:53:57.537Z,54.13
2018-04-11T01:56:26.013Z,49.67
2018-04-11T01:58:54.381Z,56.10
2018-04-11T02:01:22.764Z,49.23
2018-04-11T02:03:51.208Z,54.00
2018-04-11T02:06:19.602Z,51.00
2018-04-11T02:08:47.965Z,57.67
2018-04-11T02:11:16.343Z,55.50
2018-04-11T02:13:44.762Z,61.70
2018-04-11T02:16:13.150Z,64.50
2018-04-11T02:18:41.511Z,58.70
2018-04-11T02:21:09.888Z,69.67
2018-04-11T02:23:38.285Z,70.13
2018-04-11T02:26:06.885Z,67.33
2018-04-11T02:28:35.253Z,65.73
2018-04-11T02:31:03.668Z,68.03
2018-04-11T02:33:32.024Z,71.33
2018-04-11T02:36:00.450Z,70.20
2018-04-11T02:38:28.814Z,70.60
2018-04-11T02:40:57.202Z,76.37
2018-04-11T02:43:25.574Z,70.83
2018-04-11T02:45:53.953Z,87.10
2018-04-11T02:48:22.364Z,72.30
2018-04-11T02:50:50.743Z,74.23
2018-04-11T02:53:19.177Z,70.40
2018-04-11T02:55:47.542Z,75.70
2018-04-11T02:58:15.908Z,72.77
2018-04-11T03:00:44.379Z,66.60
2018-04-11T03:03:12.748Z,73.73
2018-04-11T03:05:41.101Z,78.70
2018-04-11T03:08:09.463Z,84.47
2018-04-11T03:10:37.916Z,76.83
2018-04-11T03:13:06.270Z,79.37
2018-04-11T03:15:34.638Z,77.73
2018-04-11T03:18:03.055Z,75.00
2018-04-11T03:20:31.595Z,62.80
2018-04-11T03:22:59.945Z,73.30
2018-04-11T03:25:28.315Z,72.40
2018-04-11T03:27:56.694Z,81.50
2018-04-11T03:30:25.074Z,73.30
2018-04-11T03:32:53.517Z,75.50
2018-04-11T03:35:21.869Z,70.17
2018-04-11T03:37:50.229Z,67.87
2018-04-11T03:40:18.592Z,67.53
2018-04-11T03:42:46.944Z,70.33
2018-04-11T03:45:15.346Z,66.57
2018-04-11T03:47:43.788Z,66.87
2018-04-11T03:50:12.182Z,56.93
2018-04-11T03:52:40.548Z,56.30
2018-04-11T03:55:08.974Z,62.83
2018-04-11T03:57:37.328Z,74.03
2018-04-11T04:00:05.716Z,76.30
2018-04-11T04:02:34.101Z,90.13
2018-04-11T04:05:02.486Z,70.50
2018-04-11T04:07:31.830Z,77.33
2018-04-11T04:10:00.184Z,70.80
2018-04-11T04:12:28.557Z,67.27
2018-04-11T04:15:08.599Z,65.70
2018-04-11T04:17:48.701Z,70.03
2018-04-11T04:20:28.765Z,75.90
2018-04-11T04:22:57.165Z,76.10
2018-04-11T04:25:25.622Z,70.87
2018-04-11T04:27:54.019Z,67.03
2018-04-11T04:30:22.550Z,75.50
2018-04-11T04:32:50.972Z,75.50
2018-04-11T04:35:19.374Z,80.67
2018-04-11T04:37:47.849Z,80.60
2018-04-11T04:40:16.267Z,77.27
2018-04-11T04:42:44.662Z,75.20
2018-04-11T04:45:15.223Z,77.63
2018-04-11T04:47:43.678Z,78.43
2018-04-11T04:50:12.518Z,70.03
2018-04-11T04:52:40.993Z,78.67
2018-04-11T04:55:09.433Z,72.10
2018-04-11T04:57:37.843Z,61.03
2018-04-11T05:00:06.246Z,58.23
2018-04-11T05:02:34.621Z,58.83
2018-04-11T05:05:03.026Z,60.37
2018-04-11T05:07:31.406Z,59.10
2018-04-11T05:09:59.805Z,57.57
2018-04-11T05:12:28.182Z,60.97
2018-04-11T05:14:56.615Z,66.23
2018-04-11T05:17:24.994Z,79.10
2018-04-11T05:19:53.403Z,65.63
2018-04-11T05:22:21.857Z,62.23
2018-04-11T05:24:50.255Z,62.10
2018-04-11T05:27:18.772Z,67.37
2018-04-11T05:29:47.180Z,61.10
2018-04-11T05:32:15.648Z,69.53
2018-04-11T05:34:44.058Z,78.93
2018-04-11T05:37:12.657Z,83.10
2018-04-11T05:39:41.063Z,67.90
2018-04-11T05:42:09.464Z,60.53
2018-04-11T05:44:38.771Z,59.10
2018-04-11T05:47:07.182Z,73.33
2018-04-11T05:49:35.617Z,81.23
2018-04-11T05:52:04.017Z,69.13
2018-04-11T05:54:32.435Z,70.20
2018-04-11T05:57:00.819Z,75.37
2018-04-11T05:59:29.226Z,65.20
2018-04-11T06:01:57.623Z,59.93
2018-04-11T06:04:26.082Z,64.90
2018-04-11T06:06:54.502Z,58.17
2018-04-11T06:09:22.973Z,61.93
2018-04-11T06:11:51.399Z,64.57
2018-04-11T06:14:19.811Z,62.67
2018-04-11T06:16:48.297Z,57.73
2018-04-11T06:19:16.772Z,63.93
2018-04-11T06:21:45.152Z,71.43
2018-04-11T06:24:13.657Z,64.50
2018-04-11T06:26:42.151Z,69.00
2018-04-11T06:29:10.552Z,67.80
2018-04-11T06:31:39.037Z,63.30
2018-04-11T06:34:07.449Z,55.77
2018-04-11T06:36:35.863Z,57.50
2018-04-11T06:39:04.338Z,61.63
2018-04-11T06:41:32.736Z,58.03
2018-04-11T06:44:01.136Z,55.07
2018-04-11T06:46:29.528Z,50.40
2018-04-11T06:48:57.911Z,53.40
2018-04-11T06:51:26.288Z,47.00
2018-04-11T06:53:54.656Z,52.17
2018-04-11T06:56:23.038Z,49.23
2018-04-11T06:58:52.949Z,48.27
2018-04-11T07:01:21.449Z,40.07
2018-04-11T07:03:49.861Z,48.40
2018-04-11T07:06:18.281Z,45.57
2018-04-11T07:08:46.863Z,47.33
2018-04-11T07:11:15.544Z,42.70
2018-04-11T07:13:43.981Z,37.20
2018-04-11T07:16:12.364Z,38.40
2018-04-11T07:18:40.930Z,45.07
2018-04-11T07:21:09.304Z,35.70
2018-04-11T07:23:37.688Z,36.53
2018-04-11T07:26:06.152Z,49.23
2018-04-11T07:28:34.674Z,38.27
2018-04-11T07:31:03.065Z,37.60
2018-04-11T07:33:31.440Z,33.13
2018-04-11T07:35:59.804Z,36.63
2018-04-11T07:38:28.244Z,34.27
2018-04-11T07:40:56.696Z,30.93
2018-04-11T07:43:25.078Z,29.77
2018-04-11T07:45:53.546Z,32.60
2018-04-11T07:48:21.916Z,29.70
2018-04-11T07:50:50.641Z,27.40
2018-04-11T07:53:19.068Z,27.13
2018-04-11T07:55:47.471Z,28.50
2018-04-11T07:58:15.860Z,26.43
2018-04-11T08:00:44.273Z,25.27
2018-04-11T08:03:12.775Z,28.80
2018-04-11T08:05:41.224Z,30.17
2018-04-11T08:08:09.617Z,29.57
2018-04-11T08:10:38.021Z,35.90
2018-04-11T08:13:06.434Z,29.17
2018-04-11T08:15:34.913Z,36.37
2018-04-11T08:18:03.333Z,32.40
2018-04-11T08:20:32.641Z,38.40
2018-04-11T08:23:01.088Z,38.73
2018-04-11T08:25:29.538Z,40.03
2018-04-11T08:27:58.005Z,40.67
2018-04-11T08:30:26.435Z,39.53
2018-04-11T08:32:54.923Z,41.20
2018-04-11T08:35:23.373Z,42.47
2018-04-11T08:37:51.829Z,42.40
2018-04-11T08:40:20.324Z,49.30
2018-04-11T08:42:48.824Z,44.10
2018-04-11T08:45:17.231Z,44.10
2018-04-11T08:47:45.691Z,44.83
2018-04-11T08:50:14.101Z,43.23
2018-04-11T08:52:42.558Z,49.43
2018-04-11T08:55:10.955Z,49.27
2018-04-11T08:57:39.373Z,47.70
2018-04-11T09:00:07.783Z,45.40
2018-04-11T09:02:36.184Z,55.60
2018-04-11T09:05:04.578Z,50.60
2018-04-11T09:07:32.965Z,55.47
2018-04-11T09:10:01.575Z,50.87
2018-04-11T09:12:29.980Z,53.23
2018-04-11T09:14:58.486Z,53.17
2018-04-11T09:17:26.898Z,49.00
2018-04-11T09:19:55.298Z,52.50
2018-04-11T09:22:23.778Z,56.30
2018-04-11T09:24:52.213Z,56.87
2018-04-11T09:27:20.724Z,55.20
2018-04-11T09:29:49.115Z,57.07
2018-04-11T09:32:17.531Z,55.00
2018-04-11T09:34:46.042Z,67.03
2018-04-11T09:37:14.451Z,56.43
2018-04-11T09:39:42.883Z,56.17
2018-04-11T09:42:11.326Z,50.13
2018-04-11T09:44:39.748Z,53.47
2018-04-11T09:47:08.211Z,58.57
2018-04-11T09:49:36.615Z,49.47
2018-04-11T09:52:05.029Z,58.03
2018-04-11T09:54:33.453Z,54.83
2018-04-11T09:57:02.070Z,56.93
2018-04-11T09:59:30.734Z,57.37
2018-04-11T10:01:59.139Z,60.93
2018-04-11T10:04:27.589Z,57.97
2018-04-11T10:06:56.080Z,56.17
2018-04-11T10:09:24.630Z,54.90
2018-04-11T10:11:53.029Z,65.50
2018-04-11T10:14:21.556Z,57.07
2018-04-11T10:16:49.981Z,57.03
2018-04-11T10:19:18.387Z,57.60
2018-04-11T10:21:46.768Z,57.80
2018-04-11T10:24:15.268Z,54.27
2018-04-11T10:26:43.645Z,43.63
2018-04-11T10:29:12.022Z,39.70
2018-04-11T10:31:40.473Z,46.57
2018-04-11T10:34:09.137Z,44.97
2018-04-11T10:36:37.942Z,51.63
2018-04-11T10:39:06.538Z,44.63
2018-04-11T10:41:35.011Z,44.50
2018-04-11T10:44:03.478Z,39.83
2018-04-11T10:46:31.918Z,37.63
2018-04-11T10:49:00.319Z,34.33
2018-04-11T10:51:28.737Z,34.50
2018-04-11T10:53:57.160Z,38.10
2018-04-11T10:56:25.590Z,40.03
2018-04-11T10:58:54.061Z,35.83
2018-04-11T11:01:22.636Z,33.50
2018-04-11T11:03:51.148Z,33.93
2018-04-11T11:06:19.637Z,32.80
2018-04-11T11:08:48.070Z,33.47
2018-04-11T11:11:16.474Z,32.00
2018-04-11T11:13:44.965Z,36.30
2018-04-11T11:16:13.375Z,34.33
2018-04-11T11:18:41.797Z,32.37
2018-04-11T11:21:10.217Z,28.90
2018-04-11T11:23:38.637Z,29.33
2018-04-11T11:26:07.192Z,29.27
2018-04-11T11:28:35.736Z,32.37
2018-04-11T11:31:04.150Z,36.37
2018-04-11T11:33:32.706Z,30.03
2018-04-11T11:36:01.223Z,28.87
2018-04-11T11:38:30.087Z,26.33
2018-04-11T11:40:58.468Z,22.00
2018-04-11T11:43:26.926Z,30.10
2018-04-11T11:45:56.334Z,21.10
2018-04-11T11:48:24.748Z,21.30
2018-04-11T11:50:53.150Z,23.37
2018-04-11T11:53:21.559Z,20.30
2018-04-11T11:55:50.016Z,23.50
2018-04-11T11:58:18.445Z,24.00
2018-04-11T12:00:46.925Z,23.73
2018-04-11T12:03:15.409Z,25.10
2018-04-11T12:05:43.889Z,21.47
2018-04-11T12:08:12.357Z,18.20
2018-04-11T12:10:40.869Z,21.27
2018-04-11T12:13:09.287Z,18.53
2018-04-11T12:15:37.702Z,15.67
2018-04-11T12:18:06.128Z,18.13
2018-04-11T12:20:34.523Z,20.97
2018-04-11T12:23:02.897Z,24.67
2018-04-11T12:25:31.273Z,23.47
2018-04-11T12:27:59.708Z,20.70
2018-04-11T12:30:28.102Z,24.93
2018-04-11T12:32:57.432Z,22.67
2018-04-11T12:35:26.036Z,22.13
2018-04-11T12:37:54.474Z,18.73
2018-04-11T12:40:22.922Z,22.13
2018-04-11T12:42:51.350Z,16.50
2018-04-11T12:45:21.783Z,16.10
2018-04-11T12:47:50.259Z,19.20
2018-04-11T12:50:18.792Z,15.33
2018-04-11T12:52:47.264Z,17.37
2018-04-11T12:55:15.902Z,18.00
2018-04-11T12:57:45.192Z,18.77
2018-04-11T13:00:14.506Z,19.13
2018-04-11T13:02:43.082Z,19.70
2018-04-11T13:05:11.631Z,15.00
2018-04-11T13:07:40.123Z,18.57
2018-04-11T13:10:08.520Z,16.47
2018-04-11T13:12:37.851Z,15.70
2018-04-11T13:15:06.276Z,13.43
2018-04-11T13:17:35.490Z,16.30
2018-04-11T13:20:03.914Z,11.50
2018-04-11T13:22:32.303Z,12.23
2018-04-11T13:25:00.710Z,12.83
2018-04-11T13:27:29.111Z,11.60
2018-04-11T13:29:57.623Z,15.43
2018-04-11T13:32:26.535Z,10.40
2018-04-11T13:34:55.154Z,18.33
2018-04-11T13:37:23.705Z,10.90
2018-04-11T13:39:52.157Z,13.80
2018-04-11T13:42:20.587Z,11.67
2018-04-11T13:44:49.013Z,11.63
2018-04-11T13:47:17.533Z,13.53
2018-04-11T13:49:46.006Z,13.10
2018-04-11T13:52:14.440Z,11.50
2018-04-11T13:54:42.918Z,14.03
2018-04-11T13:57:11.437Z,11.13
2018-04-11T13:59:39.963Z,9.70
2018-04-11T14:02:08.354Z,8.67
2018-04-11T14:04:36.765Z,8.90
2018-04-11T14:07:05.172Z,9.97
2018-04-11T14:09:33.607Z,11.37
2018-04-11T14:12:02.095Z,9.47
2018-04-11T14:14:30.549Z,7.50
2018-04-11T14:16:59.333Z,8.23
2018-04-11T14:19:27.765Z,9.90
2018-04-11T14:21:56.165Z,8.10
2018-04-11T14:24:24.895Z,7.60
2018-04-11T14:26:53.314Z,8.67
2018-04-11T14:29:22.033Z,6.60
2018-04-11T14:31:51.368Z,5.20
2018-04-11T14:34:19.772Z,6.60
2018-04-11T14:36:48.429Z,5.60
2018-04-11T14:39:16.815Z,5.63
2018-04-11T14:41:45.193Z,5.67
2018-04-11T14:44:13.613Z,5.17
2018-04-11T14:46:42.121Z,4.73
2018-04-11T14:49:10.797Z,4.23
2018-04-11T14:51:39.453Z,4.47
2018-04-11T14:54:07.965Z,5.67
2018-04-11T14:56:36.350Z,5.47
2018-04-11T14:59:04.709Z,7.20
2018-04-11T15:01:33.223Z,8.10
2018-04-11T15:04:01.643Z,6.83
2018-04-11T15:06:30.155Z,6.73
2018-04-11T15:08:58.572Z,6.80
2018-04-11T15:11:27.020Z,7.43
2018-04-11T15:13:55.547Z,6.90
2018-04-11T15:16:24.080Z,7.13
2018-04-11T15:18:53.573Z,6.90
2018-04-11T15:21:22.167Z,9.27
2018-04-11T15:23:52.792Z,7.90
2018-04-11T15:26:21.475Z,12.43
2018-04-11T15:28:49.970Z,7.00
2018-04-11T15:31:18.508Z,14.23
2018-04-11T15:33:46.987Z,7.30
2018-04-11T15:36:15.700Z,8.80
2018-04-11T15:38:44.148Z,9.57
2018-04-11T15:41:12.613Z,13.20
2018-04-11T15:43:41.112Z,9.40
2018-04-11T15:46:21.407Z,9.60
2018-04-11T15:48:49.844Z,8.77
2018-04-11T15:51:18.364Z,8.43
2018-04-11T15:53:46.925Z,12.40
2018-04-11T15:56:15.632Z,8.20
2018-04-11T15:58:44.065Z,10.40
2018-04-11T16:01:13.489Z,8.33
2018-04-11T16:03:41.899Z,7.13
2018-04-11T16:06:10.300Z,8.20
2018-04-11T16:08:38.689Z,7.43
2018-04-11T16:11:07.125Z,9.70
2018-04-11T16:13:35.539Z,9.50
2018-04-11T16:16:03.936Z,6.73
2018-04-11T16:18:32.335Z,7.00
2018-04-11T16:21:00.804Z,10.87
2018-04-11T16:23:29.218Z,6.50
2018-04-11T16:25:57.673Z,6.90
2018-04-11T16:28:30.803Z,7.17
2018-04-11T16:30:59.272Z,8.50
2018-04-11T16:33:27.683Z,8.27
2018-04-11T16:35:56.109Z,7.13
2018-04-11T16:38:24.515Z,12.73
2018-04-11T16:40:52.889Z,8.07
2018-04-11T16:43:21.369Z,6.13
2018-04-11T16:45:49.755Z,7.70
2018-04-11T16:48:18.233Z,5.20
2018-04-11T16:50:46.622Z,5.33
2018-04-11T16:53:15.064Z,5.47
2018-04-11T16:55:43.431Z,5.80
2018-04-11T16:58:11.916Z,5.13
2018-04-11T17:00:40.358Z,5.60
2018-04-11T17:03:09.379Z,4.80
2018-04-11T17:05:37.887Z,5.40
2018-04-11T17:08:07.030Z,8.37
2018-04-11T17:10:35.626Z,5.63
2018-04-11T17:13:04.130Z,8.13
2018-04-11T17:15:32.522Z,6.60
2018-04-11T17:18:02.532Z,8.17
2018-04-11T17:20:43.448Z,5.17
2018-04-11T17:23:23.659Z,5.60
2018-04-11T17:26:03.908Z,7.73
2018-04-11T17:28:44.086Z,8.73
2018-04-11T17:31:31.715Z,5.63
2018-04-11T17:34:00.141Z,6.87
2018-04-11T17:36:28.627Z,7.00
2018-04-11T17:38:57.073Z,14.33
2018-04-11T17:41:25.477Z,7.00
2018-04-11T17:43:54.134Z,8.43
2018-04-11T17:46:23.046Z,6.50
2018-04-11T17:48:51.941Z,8.17
2018-04-11T17:51:20.980Z,9.80
2018-04-11T17:53:49.529Z,8.00
2018-04-11T17:56:17.923Z,34.60
2018-04-11T17:58:46.332Z,8.23
2018-04-11T18:01:14.833Z,10.80
2018-04-11T18:03:43.546Z,10.87
2018-04-11T18:06:11.941Z,11.70
2018-04-11T18:08:40.390Z,7.87
2018-04-11T18:11:08.758Z,11.90
2018-04-11T18:13:37.326Z,6.17
2018-04-11T18:16:05.746Z,7.93
2018-04-11T18:18:34.667Z,6.90
2018-04-11T18:21:03.309Z,9.73
2018-04-11T18:23:31.691Z,10.93
2018-04-11T18:26:00.171Z,8.10
2018-04-11T18:28:28.615Z,7.77
2018-04-11T18:31:02.131Z,12.77
2018-04-11T18:33:36.229Z,6.93
2018-04-11T18:36:04.624Z,14.43
2018-04-11T18:38:33.149Z,9.90
2018-04-11T18:41:01.571Z,5.83
2018-04-11T18:43:29.992Z,8.00
2018-04-11T18:45:58.409Z,8.13
2018-04-11T18:48:26.888Z,6.97
2018-04-11T18:53:35.292Z,5.80
2018-04-11T18:56:03.769Z,24.30
2018-04-11T18:58:32.227Z,6.77
2018-04-11T19:01:00.642Z,14.30
2018-04-11T19:03:29.080Z,11.43
2018-04-11T19:11:57.032Z,7.23
2018-04-11T19:14:25.521Z,14.63
2018-04-11T19:17:10.069Z,9.20
2018-04-11T19:19:38.509Z,9.93
2018-04-11T19:22:06.936Z,15.90
2018-04-11T19:24:36.274Z,9.60
2018-04-11T19:27:04.826Z,12.73
2018-04-11T19:29:33.329Z,13.80
2018-04-11T19:32:02.075Z,8.50
2018-04-11T19:35:24.521Z,10.10
2018-04-11T19:37:53.135Z,15.57
2018-04-11T19:40:21.536Z,10.10
2018-04-11T19:42:49.977Z,17.10
2018-04-11T19:45:18.489Z,11.90
2018-04-11T19:47:46.895Z,14.23
2018-04-11T19:50:15.334Z,9.50
2018-04-11T19:52:43.871Z,13.40
2018-04-11T19:55:12.348Z,9.83
2018-04-11T19:57:40.883Z,8.80
2018-04-11T20:00:09.528Z,13.07
2018-04-11T20:02:38.119Z,9.57
2018-04-11T20:05:06.535Z,11.20
2018-04-11T20:07:35.093Z,8.60
2018-04-11T20:10:03.501Z,13.87
2018-04-11T20:15:20.418Z,13.10
2018-04-11T20:17:48.951Z,9.30
2018-04-11T20:20:17.363Z,8.97
2018-04-11T20:22:45.709Z,9.07
2018-04-11T20:25:14.084Z,11.97
2018-04-11T20:27:42.683Z,9.77
2018-04-11T20:30:11.200Z,13.80
2018-04-11T20:32:39.600Z,8.90
2018-04-11T20:35:07.991Z,11.70
2018-04-11T20:37:36.364Z,11.13
2018-04-11T20:40:05.184Z,13.13
2018-04-11T20:42:33.583Z,7.70
2018-04-11T20:45:02.064Z,10.00
2018-04-11T20:47:30.509Z,9.97
2018-04-11T20:49:58.987Z,10.50
2018-04-11T20:52:27.369Z,13.10
2018-04-11T20:54:55.740Z,16.50
2018-04-11T20:57:24.094Z,9.83
2018-04-11T20:59:52.553Z,9.10
2018-04-11T21:02:20.916Z,10.83
2018-04-11T21:04:49.502Z,16.60
2018-04-11T21:07:17.979Z,9.67
2018-04-11T21:09:46.338Z,10.67
2018-04-11T21:12:14.728Z,13.17
2018-04-11T21:14:43.094Z,13.67
2018-04-11T21:17:11.495Z,12.00
2018-04-11T21:19:39.853Z,13.00
2018-04-11T21:22:08.478Z,11.90
2018-04-11T21:24:36.899Z,9.60
2018-04-11T21:27:05.308Z,12.93
2018-04-11T21:29:33.757Z,12.50
2018-04-11T21:32:02.189Z,11.20
2018-04-11T21:34:30.571Z,14.57
2018-04-11T21:36:58.961Z,12.83
2018-04-11T21:39:27.352Z,15.33
2018-04-11T21:41:55.834Z,15.23
2018-04-11T21:44:24.288Z,15.83
2018-04-11T21:46:53.350Z,22.53
2018-04-11T21:49:21.864Z,18.90
2018-04-11T21:51:52.322Z,27.10
2018-04-11T21:54:20.783Z,20.00
2018-04-11T21:56:49.253Z,17.80
2018-04-11T21:59:17.800Z,18.43
2018-04-11T22:01:48.153Z,16.90
2018-04-11T22:04:16.572Z,21.10
2018-04-11T22:06:45.063Z,22.10
2018-04-11T22:09:13.464Z,19.30
2018-04-11T22:11:42.086Z,20.40
2018-04-11T22:14:10.480Z,17.97
2018-04-11T22:16:38.899Z,19.37
2018-04-11T22:19:07.309Z,21.13
2018-04-11T22:21:35.721Z,20.07
2018-04-11T22:24:04.179Z,20.97
2018-04-11T22:26:32.561Z,31.50
2018-04-11T22:29:00.986Z,28.97
2018-04-11T22:31:29.377Z,33.57
2018-04-11T22:33:57.785Z,32.20
2018-04-11T22:36:26.230Z,28.83
2018-04-11T22:38:54.693Z,26.73
2018-04-11T22:41:23.085Z,52.33
2018-04-11T22:43:51.478Z,35.90
2018-04-11T22:46:19.887Z,84.13
2018-04-11T22:48:48.302Z,67.63
2018-04-11T22:51:16.701Z,50.17
2018-04-11T22:53:45.085Z,37.03
2018-04-11T22:56:13.491Z,35.67
2018-04-11T22:58:41.865Z,42.93
2018-04-11T23:01:10.309Z,40.43
2018-04-11T23:03:38.669Z,90.93
2018-04-11T23:06:07.044Z,77.73
2018-04-11T23:08:35.421Z,113.67
2018-04-11T23:11:03.814Z,106.27
2018-04-11T23:13:32.224Z,128.80
2018-04-11T23:16:00.607Z,144.27
2018-04-11T23:18:29.046Z,146.53
2018-04-11T23:20:57.417Z,136.43
2018-04-11T23:23:26.126Z,135.60
2018-04-11T23:25:58.207Z,131.53
2018-04-11T23:28:26.815Z,117.67
2018-04-11T23:30:55.263Z,120.10
2018-04-11T23:33:23.629Z,121.60
2018-04-11T23:35:52.009Z,110.27
2018-04-11T23:38:20.389Z,112.33
2018-04-11T23:40:48.770Z,111.40
2018-04-11T23:43:17.214Z,105.57
2018-04-11T23:45:45.589Z,106.30
2018-04-11T23:48:13.969Z,104.83
2018-04-11T23:50:42.437Z,99.23
2018-04-11T23:53:10.813Z,99.20
2018-04-11T23:55:39.240Z,102.30
2018-04-11T23:58:07.625Z,96.70
